createdAt,value
2023-01-18T00:03:36.718Z,1.87
2023-01-18T00:08:39.744Z,1.77
2023-01-18T00:13:41.804Z,1.74
2023-01-18T00:18:49.731Z,1.69
2023-01-18T00:23:51.520Z,1.67
2023-01-18T00:28:56.184Z,1.66
2023-01-18T00:33:58.544Z,1.58
2023-01-18T00:39:00.742Z,1.49
2023-01-18T00:44:02.445Z,1.41
2023-01-18T00:49:04.209Z,1.32
2023-01-18T00:54:05.865Z,1.21
2023-01-18T00:59:07.717Z,0.98
2023-01-18T01:04:28.166Z,0.91
2023-01-18T01:09:29.945Z,0.91
2023-01-18T01:14:52.301Z,0.96
2023-01-18T01:20:12.695Z,0.67
2023-01-18T01:25:33.183Z,0.64
2023-01-18T01:30:34.927Z,0.71
2023-01-18T01:35:36.643Z,0.73
2023-01-18T01:40:38.414Z,0.75
2023-01-18T01:45:40.125Z,0.75
2023-01-18T01:50:42.005Z,0.79
2023-01-18T01:55:43.756Z,0.82
2023-01-18T02:00:45.631Z,0.83
2023-01-18T02:05:50.492Z,0.86
2023-01-18T02:10:52.720Z,0.86
2023-01-18T02:16:06.640Z,0.85
2023-01-18T02:21:18.547Z,0.80
2023-01-18T02:26:48.458Z,0.73
2023-01-18T02:32:13.196Z,0.54
2023-01-18T02:37:20.977Z,0.35
2023-01-18T02:42:45.579Z,0.17
2023-01-18T02:47:48.307Z,0.26
2023-01-18T02:52:52.048Z,0.34
2023-01-18T02:58:00.117Z,0.28
2023-01-18T03:03:02.352Z,0.30
2023-01-18T03:08:27.291Z,0.35
2023-01-18T03:13:58.647Z,0.26
2023-01-18T03:19:25.179Z,0.31
2023-01-18T03:24:30.259Z,0.29
2023-01-18T03:29:51.029Z,0.22
2023-01-18T03:35:07.982Z,0.17
2023-01-18T03:40:27.344Z,0.21
2023-01-18T03:45:48.129Z,0.36
2023-01-18T03:51:00.290Z,0.45
2023-01-18T03:56:08.695Z,0.56
2023-01-18T04:01:10.641Z,0.53
2023-01-18T04:06:12.429Z,0.60
2023-01-18T04:11:14.081Z,0.67
2023-01-18T04:16:16.126Z,0.77
2023-01-18T04:21:18.018Z,0.73
2023-01-18T04:26:19.897Z,0.73
2023-01-18T04:31:22.552Z,0.76
2023-01-18T04:36:24.339Z,0.55
2023-01-18T04:41:26.027Z,0.52
2023-01-18T04:46:27.851Z,0.53
2023-01-18T04:51:31.337Z,0.54
2023-01-18T04:56:33.041Z,0.41
2023-01-18T05:01:35.701Z,0.40
2023-01-18T05:06:37.453Z,0.40
2023-01-18T05:11:39.224Z,0.41
2023-01-18T05:16:41.155Z,0.37
2023-01-18T05:21:42.952Z,0.33
2023-01-18T05:26:45.054Z,0.27
2023-01-18T05:31:46.843Z,0.20
2023-01-18T05:36:49.196Z,0.11
2023-01-18T05:41:50.890Z,0.06
2023-01-18T05:46:52.578Z,-0.09
2023-01-18T05:51:54.236Z,0.07
2023-01-18T05:56:56.377Z,-0.04
2023-01-18T06:01:58.095Z,-0.17
2023-01-18T06:06:59.964Z,-0.12
2023-01-18T06:12:02.047Z,-0.10
2023-01-18T06:17:04.600Z,-0.16
2023-01-18T06:22:06.671Z,-0.20
2023-01-18T06:27:08.403Z,0.62
2023-01-18T06:32:10.119Z,0.40
2023-01-18T06:37:12.696Z,0.24
2023-01-18T06:42:14.503Z,0.15
2023-01-18T06:47:19.807Z,0.11
2023-01-18T06:52:21.895Z,-0.10
2023-01-18T06:57:23.933Z,0.00
2023-01-18T07:02:25.612Z,-0.06
2023-01-18T07:07:27.891Z,-0.03
2023-01-18T07:12:29.554Z,0.04
2023-01-18T07:17:31.749Z,0.10
2023-01-18T07:22:33.418Z,0.16
2023-01-18T07:27:35.135Z,0.19
2023-01-18T07:32:36.767Z,0.16
2023-01-18T07:37:38.597Z,0.16
2023-01-18T07:42:40.549Z,0.21
2023-01-18T07:47:42.733Z,0.27
2023-01-18T07:52:44.543Z,0.33
2023-01-18T07:57:46.259Z,0.21
2023-01-18T08:02:51.018Z,0.13
2023-01-18T08:07:53.790Z,0.01
2023-01-18T08:12:55.613Z,0.06
2023-01-18T08:17:57.753Z,0.18
2023-01-18T08:23:00.840Z,0.12
2023-01-18T08:28:03.642Z,0.18
2023-01-18T08:33:05.677Z,0.11
2023-01-18T08:38:07.474Z,0.33
2023-01-18T08:43:10.956Z,0.58
2023-01-18T08:48:12.548Z,0.71
2023-01-18T08:53:14.235Z,0.84
2023-01-18T08:58:15.910Z,0.86
2023-01-18T09:03:21.959Z,1.04
2023-01-18T09:08:23.698Z,1.15
2023-01-18T09:13:25.358Z,1.23
2023-01-18T09:18:27.159Z,1.31
2023-01-18T09:23:28.810Z,1.49
2023-01-18T09:28:31.565Z,1.66
2023-01-18T09:33:37.869Z,1.79
2023-01-18T09:38:44.713Z,1.83
2023-01-18T09:43:52.874Z,1.91
2023-01-18T09:48:59.323Z,2.04
2023-01-18T09:54:14.000Z,2.04
2023-01-18T09:59:32.908Z,1.98
2023-01-18T10:04:41.054Z,1.95
2023-01-18T10:09:49.403Z,2.02
2023-01-18T10:15:22.911Z,2.07
2023-01-18T10:20:44.309Z,2.15
2023-01-18T10:25:53.292Z,2.22
2023-01-18T10:31:06.325Z,2.29
2023-01-18T10:36:16.312Z,2.38
2023-01-18T10:41:28.029Z,2.49
2023-01-18T10:46:30.508Z,2.59
2023-01-18T10:51:36.362Z,2.73
2023-01-18T10:56:39.967Z,2.69
2023-01-18T11:02:01.127Z,2.72
2023-01-18T11:07:33.905Z,2.59
2023-01-18T11:12:44.236Z,2.58
2023-01-18T11:17:56.200Z,2.47
2023-01-18T11:23:14.759Z,2.22
2023-01-18T11:28:19.954Z,2.02
2023-01-18T11:33:23.957Z,1.85
2023-01-18T11:38:28.492Z,1.80
2023-01-18T11:43:33.958Z,1.72
2023-01-18T11:48:44.718Z,1.73
2023-01-18T11:53:55.680Z,1.71
2023-01-18T11:58:57.811Z,1.76
2023-01-18T12:04:03.964Z,1.69
2023-01-18T12:09:11.696Z,1.74
2023-01-18T12:14:28.593Z,1.74
2023-01-18T12:19:52.491Z,1.72
2023-01-18T12:25:00.319Z,1.75
2023-01-18T12:30:29.749Z,1.76
2023-01-18T12:35:50.610Z,1.74
2023-01-18T12:41:26.746Z,1.79
2023-01-18T12:46:43.671Z,1.80
2023-01-18T12:51:49.343Z,1.78
2023-01-18T12:56:54.816Z,1.79
2023-01-18T13:02:24.314Z,1.79
2023-01-18T13:07:32.976Z,1.82
2023-01-18T13:12:34.757Z,1.84
2023-01-18T13:17:36.735Z,1.87
2023-01-18T13:23:03.571Z,1.89
2023-01-18T13:28:18.722Z,1.88
2023-01-18T13:33:26.158Z,1.86
2023-01-18T13:38:40.994Z,1.87
2023-01-18T13:43:43.374Z,1.90
2023-01-18T13:48:46.552Z,1.92
2023-01-18T13:53:50.099Z,1.98
2023-01-18T13:59:01.718Z,2.09
2023-01-18T14:04:31.939Z,2.10
2023-01-18T14:09:43.284Z,2.05
2023-01-18T14:15:00.913Z,2.04
2023-01-18T14:20:34.170Z,2.03
2023-01-18T14:25:48.634Z,2.01
2023-01-18T14:30:54.764Z,1.99
2023-01-18T14:35:59.098Z,2.06
2023-01-18T14:41:08.440Z,2.12
2023-01-18T14:46:15.825Z,2.11
2023-01-18T14:51:22.268Z,2.09
2023-01-18T14:56:29.291Z,2.11
2023-01-18T15:01:31.301Z,2.04
2023-01-18T15:06:43.618Z,2.03
2023-01-18T15:11:45.500Z,1.99
2023-01-18T15:16:50.480Z,1.98
2023-01-18T15:21:52.238Z,1.94
2023-01-18T15:26:56.173Z,1.93
2023-01-18T15:32:02.447Z,1.88
2023-01-18T15:37:09.950Z,1.89
2023-01-18T15:42:15.300Z,1.89
2023-01-18T15:47:23.678Z,1.85
2023-01-18T15:52:43.979Z,1.88
2023-01-18T15:58:00.823Z,1.87
2023-01-18T16:03:04.457Z,1.87
2023-01-18T16:08:21.368Z,1.85
2023-01-18T16:13:26.607Z,1.86
2023-01-18T16:18:28.246Z,1.78
2023-01-18T16:23:30.024Z,1.81
2023-01-18T16:28:32.060Z,1.76
2023-01-18T16:33:33.701Z,1.79
2023-01-18T16:38:35.530Z,1.82
2023-01-18T16:43:37.219Z,1.81
2023-01-18T16:48:38.935Z,1.80
2023-01-18T16:53:40.649Z,1.75
2023-01-18T16:58:43.571Z,1.74
2023-01-18T17:03:45.604Z,1.73
2023-01-18T17:08:49.142Z,1.75
2023-01-18T17:13:50.914Z,1.73
2023-01-18T17:18:52.564Z,1.79
2023-01-18T17:23:54.327Z,1.85
2023-01-18T17:28:55.969Z,1.89
2023-01-18T17:33:58.685Z,1.86
2023-01-18T17:39:00.358Z,1.83
2023-01-18T17:44:03.168Z,1.88
2023-01-18T17:49:04.928Z,1.96
2023-01-18T17:54:13.137Z,1.91
2023-01-18T17:59:22.247Z,1.98
2023-01-18T18:04:23.911Z,2.05
2023-01-18T18:09:25.850Z,2.09
2023-01-18T18:14:30.796Z,2.16
2023-01-18T18:19:33.580Z,2.21
2023-01-18T18:24:35.243Z,2.26
2023-01-18T18:29:36.902Z,2.17
2023-01-18T18:34:38.687Z,2.04
2023-01-18T18:39:40.599Z,2.03
2023-01-18T18:44:42.267Z,1.95
2023-01-18T18:49:44.951Z,1.94
2023-01-18T18:54:46.894Z,2.02
2023-01-18T18:59:49.367Z,1.91
2023-01-18T19:04:51.172Z,1.95
2023-01-18T19:09:53.344Z,1.96
2023-01-18T19:14:55.077Z,1.95
2023-01-18T19:19:56.842Z,1.92
2023-01-18T19:24:59.500Z,1.92
2023-01-18T19:30:01.227Z,1.88
2023-01-18T19:35:03.093Z,1.86
2023-01-18T19:40:05.785Z,1.81
2023-01-18T19:45:08.211Z,1.83
2023-01-18T19:50:11.634Z,1.81
2023-01-18T19:55:13.792Z,1.81
2023-01-18T20:00:16.610Z,1.79
2023-01-18T20:05:18.344Z,1.77
2023-01-18T20:10:20.232Z,1.79
2023-01-18T20:15:22.989Z,1.81
2023-01-18T20:20:32.502Z,1.80
2023-01-18T20:25:34.656Z,1.78
2023-01-18T20:30:39.158Z,1.79
2023-01-18T20:35:42.077Z,1.79
2023-01-18T20:41:24.225Z,1.77
2023-01-18T20:47:06.138Z,1.77
2023-01-18T20:52:22.416Z,1.77
2023-01-18T20:57:37.279Z,1.80
2023-01-18T21:02:42.215Z,1.76
2023-01-18T21:07:44.139Z,1.79
2023-01-18T21:12:47.554Z,1.79
2023-01-18T21:17:51.397Z,1.81
2023-01-18T21:22:53.233Z,1.80
2023-01-18T21:27:55.300Z,1.82
2023-01-18T21:32:57.011Z,1.81
2023-01-18T21:38:02.436Z,1.82
2023-01-18T21:43:22.591Z,1.76
2023-01-18T21:48:26.560Z,1.79
2023-01-18T21:53:46.935Z,1.75
2023-01-18T21:58:55.036Z,1.76
2023-01-18T22:04:15.431Z,1.74
2023-01-18T22:09:17.789Z,1.70
2023-01-18T22:14:19.549Z,1.70
2023-01-18T22:19:21.291Z,1.71
2023-01-18T22:24:23.114Z,1.66
2023-01-18T22:29:24.907Z,1.67
2023-01-18T22:34:26.993Z,1.71
2023-01-18T22:39:28.650Z,1.75
2023-01-18T22:44:30.419Z,1.77
2023-01-18T22:49:32.173Z,1.80
2023-01-18T22:54:33.922Z,1.83
2023-01-18T22:59:35.547Z,1.73
2023-01-18T23:04:37.175Z,1.64
2023-01-18T23:09:39.027Z,1.48
2023-01-18T23:14:59.359Z,1.48
2023-01-18T23:20:01.123Z,1.45
2023-01-18T23:25:03.824Z,1.46
2023-01-18T23:30:05.770Z,1.41
2023-01-18T23:35:07.828Z,1.44
2023-01-18T23:40:28.935Z,1.48
2023-01-18T23:45:49.239Z,1.45
2023-01-18T23:51:09.549Z,1.42
2023-01-18T23:56:11.328Z,1.41
